Tindbinbilla Nature Res, New South Wales

5:26 PM AEST on September 25, 2016 (GMT +1000)
Kambah | | Change Station

Elev 2093 ft 35.37 °S, 149.05 °E | Updated 1 minute ago

Light Rain Showers
Light Showers Rain
58.7 °F
Feels Like 58.7 °F
N
6.0
Wind Variable Wind from WNW
Gusts 11.0 mph

Today
High -- | Low -- °F
--% Chance of Precip.
Yesterday
High -- | Low -- °F
Precip. -- in
Pressure 29.77 in
Visibility 6.2 miles
Clouds Few 4000 ft
Mostly Cloudy 5500 ft
Dew Point 45 °F
Humidity 60%
Rainfall 0.00 in
Snow Depth Not available.
5:49 AM 6:03 PM
Waning Crescent, 30% visible
METAR YSCB 250700Z 26011KT 9999 -SHRA FEW040 BKN055 14/07 Q1008 NOSIG RMK USE TAF FOR ARRIVALS AFTER 0800Z
Pressure 29.77 in
Visibility 6.2 miles
Clouds Few 4000 ft
Mostly Cloudy 5500 ft
Dew Point 45 °F
Humidity 60%
Rainfall 0.00 in
Snow Depth Not available.
5:49 AM 6:03 PM
Waning Crescent, 30% visible
METAR YSCB 250700Z 26011KT 9999 -SHRA FEW040 BKN055 14/07 Q1008 NOSIG RMK USE TAF FOR ARRIVALS AFTER 0800Z

10-Day Weather Forecast

Almanac

Astronomy

Sep. 25, 2016 Rise Set
Actual Time
Civil Twilight
Nautical Twilight
Astronomical Twilight
Moon
Length of Visible Light
Length of Day
Tomorrow will be .
, % of the Moon is Illuminated

Today's Extremes

Country Highs Country Lows

Community

WunderPhotos

Upload Photos

1,941,554 photos uploaded!

WunderBlog® & News

Nearby

Air Quality

  Air Quality AQ Index Pollutant
Not available.

Snow Depth

Station Depth Elevation

Earthquake Activity

City Distance Mag. Time & Date
Minimum magnitude displayed is 2.5.

Coastal Water Temperatures

Place Temperature

Stations

Nearby Weather Stations

Station Location Temp. Windchill Dew Point Humidity Wind Precip. Elev Updated Type